sensor_id;sensor_type;location;lat;lon;timestamp;pressure;altitude;pressure_sealevel;temperature;humidity
65280;BME280;51878;55.748;48.742;2023-09-19T01:01:23;99418.38;;;10.65;100.00
65280;BME280;51878;55.748;48.742;2023-09-19T01:06:27;99427.28;;;10.73;100.00
65280;BME280;51878;55.748;48.742;2023-09-19T01:11:37;99390.47;;;10.49;100.00
65280;BME280;51878;55.748;48.742;2023-09-19T01:16:46;99432.34;;;10.77;100.00
65280;BME280;51878;55.748;48.742;2023-09-19T01:32:08;99414.56;;;10.59;100.00
65280;BME280;51878;55.748;48.742;2023-09-19T01:37:11;99398.31;;;10.44;100.00
65280;BME280;51878;55.748;48.742;2023-09-19T01:42:44;99438.97;;;10.74;100.00
65280;BME280;51878;55.748;48.742;2023-09-19T01:47:55;99440.38;;;10.70;100.00
65280;BME280;51878;55.748;48.742;2023-09-19T01:53:07;99441.59;;;10.67;100.00
65280;BME280;51878;55.748;48.742;2023-09-19T01:58:33;99453.38;;;10.74;100.00
65280;BME280;51878;55.748;48.742;2023-09-19T02:03:37;99462.16;;;10.77;100.00
65280;BME280;51878;55.748;48.742;2023-09-19T02:08:41;99388.38;;;10.22;100.00
65280;BME280;51878;55.748;48.742;2023-09-19T02:13:44;99485.63;;;10.84;100.00
65280;BME280;51878;55.748;48.742;2023-09-19T02:18:48;99474.97;;;10.83;100.00
65280;BME280;51878;55.748;48.742;2023-09-19T02:23:51;99475.72;;;10.77;100.00
65280;BME280;51878;55.748;48.742;2023-09-19T02:28:54;99445.97;;;10.53;100.00
65280;BME280;51878;55.748;48.742;2023-09-19T02:33:56;99452.06;;;10.55;100.00
65280;BME280;51878;55.748;48.742;2023-09-19T02:38:58;99497.03;;;10.80;100.00
65280;BME280;51878;55.748;48.742;2023-09-19T02:44:00;99497.88;;;10.80;100.00
65280;BME280;51878;55.748;48.742;2023-09-19T02:49:03;99514.03;;;10.73;100.00
65280;BME280;51878;55.748;48.742;2023-09-19T02:54:08;99482.91;;;10.54;100.00
65280;BME280;51878;55.748;48.742;2023-09-19T02:59:11;99475.69;;;10.47;100.00
65280;BME280;51878;55.748;48.742;2023-09-19T03:04:14;99509.84;;;10.71;100.00
65280;BME280;51878;55.748;48.742;2023-09-19T03:09:21;99514.59;;;10.69;100.00
65280;BME280;51878;55.748;48.742;2023-09-19T03:14:25;99492.72;;;10.55;100.00
65280;BME280;51878;55.748;48.742;2023-09-19T03:19:27;99527.63;;;10.88;100.00
65280;BME280;51878;55.748;48.742;2023-09-19T03:24:30;99523.97;;;10.81;100.00
65280;BME280;51878;55.748;48.742;2023-09-19T03:29:33;99531.72;;;10.84;100.00
65280;BME280;51878;55.748;48.742;2023-09-19T03:34:37;99537.06;;;10.92;100.00
65280;BME280;51878;55.748;48.742;2023-09-19T03:39:44;99521.94;;;10.83;100.00
65280;BME280;51878;55.748;48.742;2023-09-19T03:44:47;99498.16;;;10.70;100.00
65280;BME280;51878;55.748;48.742;2023-09-19T03:49:49;99542.50;;;11.07;100.00
65280;BME280;51878;55.748;48.742;2023-09-19T03:54:51;99560.38;;;11.16;100.00
65280;BME280;51878;55.748;48.742;2023-09-19T03:59:53;99531.34;;;11.02;100.00
65280;BME280;51878;55.748;48.742;2023-09-19T04:04:56;99532.88;;;11.05;100.00
65280;BME280;51878;55.748;48.742;2023-09-19T04:09:58;99544.56;;;11.20;100.00
65280;BME280;51878;55.748;48.742;2023-09-19T04:15:00;99584.41;;;11.34;100.00
65280;BME280;51878;55.748;48.742;2023-09-19T04:20:05;99588.59;;;11.52;100.00
65280;BME280;51878;55.748;48.742;2023-09-19T04:25:09;99514.88;;;11.19;100.00
65280;BME280;51878;55.748;48.742;2023-09-19T04:30:12;99555.38;;;11.50;100.00
65280;BME280;51878;55.748;48.742;2023-09-19T04:35:14;99580.13;;;11.76;100.00
65280;BME280;51878;55.748;48.742;2023-09-19T04:40:17;99600.53;;;11.87;100.00
65280;BME280;51878;55.748;48.742;2023-09-19T04:45:20;99565.16;;;11.66;100.00
65280;BME280;51878;55.748;48.742;2023-09-19T04:50:22;99599.63;;;11.95;100.00
65280;BME280;51878;55.748;48.742;2023-09-19T04:55:26;99603.50;;;12.07;100.00
65280;BME280;51878;55.748;48.742;2023-09-19T05:00:28;99570.88;;;12.07;100.00
65280;BME280;51878;55.748;48.742;2023-09-19T05:05:32;99543.19;;;12.18;100.00
65280;BME280;51878;55.748;48.742;2023-09-19T05:10:39;99620.16;;;12.90;100.00
65280;BME280;51878;55.748;48.742;2023-09-19T05:15:41;99590.97;;;13.06;100.00
65280;BME280;51878;55.748;48.742;2023-09-19T05:20:43;99634.88;;;13.59;100.00
65280;BME280;51878;55.748;48.742;2023-09-19T05:25:46;99635.81;;;13.79;100.00
65280;BME280;51878;55.748;48.742;2023-09-19T05:30:48;99635.66;;;13.94;100.00
65280;BME280;51878;55.748;48.742;2023-09-19T05:35:51;99600.22;;;13.88;96.84
65280;BME280;51878;55.748;48.742;2023-09-19T05:40:53;99654.47;;;14.51;94.60
65280;BME280;51878;55.748;48.742;2023-09-19T05:45:56;99611.84;;;14.36;91.83
65280;BME280;51878;55.748;48.742;2023-09-19T05:50:58;99655.41;;;14.71;83.86
65280;BME280;51878;55.748;48.742;2023-09-19T05:56:00;99631.66;;;14.78;83.82
65280;BME280;51878;55.748;48.742;2023-09-19T06:01:03;99661.06;;;15.03;77.95
65280;BME280;51878;55.748;48.742;2023-09-19T06:06:05;99600.59;;;14.86;75.10
65280;BME280;51878;55.748;48.742;2023-09-19T06:11:08;99616.50;;;15.22;70.41
65280;BME280;51878;55.748;48.742;2023-09-19T06:16:11;99635.41;;;15.31;68.05
65280;BME280;51878;55.748;48.742;2023-09-19T06:21:13;99655.81;;;15.28;66.53
65280;BME280;51878;55.748;48.742;2023-09-19T06:26:15;99653.06;;;15.28;66.20
65280;BME280;51878;55.748;48.742;2023-09-19T06:31:18;99597.22;;;15.11;66.79
65280;BME280;51878;55.748;48.742;2023-09-19T06:36:23;99623.16;;;15.53;64.81
65280;BME280;51878;55.748;48.742;2023-09-19T06:41:25;99643.75;;;16.21;62.56
65280;BME280;51878;55.748;48.742;2023-09-19T06:46:27;99662.66;;;16.61;57.80
65280;BME280;51878;55.748;48.742;2023-09-19T06:51:34;99665.34;;;16.67;52.45
65280;BME280;51878;55.748;48.742;2023-09-19T06:56:37;99664.69;;;17.04;50.41
65280;BME280;51878;55.748;48.742;2023-09-19T07:01:40;99666.91;;;17.57;49.75
65280;BME280;51878;55.748;48.742;2023-09-19T07:06:43;99677.06;;;18.12;48.87
65280;BME280;51878;55.748;48.742;2023-09-19T07:11:47;99630.72;;;18.22;46.81
65280;BME280;51878;55.748;48.742;2023-09-19T07:16:52;99638.94;;;18.52;42.90
65280;BME280;51878;55.748;48.742;2023-09-19T07:21:55;99640.72;;;18.58;43.13
65280;BME280;51878;55.748;48.742;2023-09-19T07:26:57;99658.56;;;19.22;41.66
65280;BME280;51878;55.748;48.742;2023-09-19T07:31:59;99644.22;;;19.31;40.54
65280;BME280;51878;55.748;48.742;2023-09-19T07:37:01;99672.31;;;19.22;41.19
65280;BME280;51878;55.748;48.742;2023-09-19T07:42:04;99623.38;;;18.76;40.89
65280;BME280;51878;55.748;48.742;2023-09-19T07:47:09;99575.41;;;18.37;39.72
65280;BME280;51878;55.748;48.742;2023-09-19T07:52:11;99635.53;;;19.23;39.26
65280;BME280;51878;55.748;48.742;2023-09-19T07:57:14;99636.81;;;19.32;38.15
65280;BME280;51878;55.748;48.742;2023-09-19T08:02:18;99679.78;;;18.91;39.18
65280;BME280;51878;55.748;48.742;2023-09-19T08:07:20;99637.31;;;19.05;39.18
65280;BME280;51878;55.748;48.742;2023-09-19T08:12:22;99637.44;;;19.34;37.95
65280;BME280;51878;55.748;48.742;2023-09-19T08:17:25;99624.91;;;19.90;37.25
65280;BME280;51878;55.748;48.742;2023-09-19T08:22:27;99662.22;;;20.10;36.78
65280;BME280;51878;55.748;48.742;2023-09-19T08:27:29;99669.91;;;19.96;37.11
65280;BME280;51878;55.748;48.742;2023-09-19T08:32:32;99659.53;;;20.15;36.88
65280;BME280;51878;55.748;48.742;2023-09-19T08:37:35;99663.63;;;20.53;35.68
65280;BME280;51878;55.748;48.742;2023-09-19T08:42:52;99667.63;;;20.91;34.46
65280;BME280;51878;55.748;48.742;2023-09-19T08:48:27;99665.94;;;21.57;34.33
65280;BME280;51878;55.748;48.742;2023-09-19T08:53:50;99668.91;;;22.34;32.11
65280;BME280;51878;55.748;48.742;2023-09-19T08:59:02;99662.38;;;21.79;33.04
65280;BME280;51878;55.748;48.742;2023-09-19T09:04:08;99575.19;;;22.27;32.08
65280;BME280;51878;55.748;48.742;2023-09-19T09:09:15;99663.50;;;23.30;31.36
65280;BME280;51878;55.748;48.742;2023-09-19T09:14:19;99603.16;;;22.63;31.20
65280;BME280;51878;55.748;48.742;2023-09-19T09:19:23;99623.72;;;23.42;29.87
65280;BME280;51878;55.748;48.742;2023-09-19T09:24:28;99645.25;;;23.77;29.75
65280;BME280;51878;55.748;48.742;2023-09-19T09:29:56;99666.94;;;23.96;29.36
65280;BME280;51878;55.748;48.742;2023-09-19T09:35:00;99645.53;;;23.76;30.03
65280;BME280;51878;55.748;48.742;2023-09-19T09:40:05;99593.91;;;24.27;28.68
65280;BME280;51878;55.748;48.742;2023-09-19T09:45:37;99653.66;;;25.12;28.10
65280;BME280;51878;55.748;48.742;2023-09-19T09:50:46;99650.47;;;23.73;28.05
65280;BME280;51878;55.748;48.742;2023-09-19T09:56:05;99661.53;;;24.21;28.76
65280;BME280;51878;55.748;48.742;2023-09-19T10:01:11;99600.66;;;24.88;27.37
65280;BME280;51878;55.748;48.742;2023-09-19T10:06:17;99647.84;;;25.13;27.85
65280;BME280;51878;55.748;48.742;2023-09-19T10:11:25;99638.66;;;25.54;26.82
65280;BME280;51878;55.748;48.742;2023-09-19T10:16:34;99621.63;;;25.91;25.53
65280;BME280;51878;55.748;48.742;2023-09-19T10:21:38;99628.69;;;26.73;25.99
65280;BME280;51878;55.748;48.742;2023-09-19T10:26:42;99594.88;;;26.90;24.89
65280;BME280;51878;55.748;48.742;2023-09-19T10:31:47;99545.22;;;27.02;24.71
65280;BME280;51878;55.748;48.742;2023-09-19T10:36:51;99622.69;;;27.53;24.05
65280;BME280;51878;55.748;48.742;2023-09-19T10:41:56;99615.53;;;26.84;23.61
65280;BME280;51878;55.748;48.742;2023-09-19T10:47:12;99627.47;;;27.24;24.23
65280;BME280;51878;55.748;48.742;2023-09-19T10:52:20;99634.81;;;28.16;23.45
65280;BME280;51878;55.748;48.742;2023-09-19T10:57:25;99631.78;;;28.12;22.71
65280;BME280;51878;55.748;48.742;2023-09-19T11:02:29;99613.00;;;28.80;22.82
65280;BME280;51878;55.748;48.742;2023-09-19T11:07:58;99624.38;;;28.83;21.80
65280;BME280;51878;55.748;48.742;2023-09-19T11:13:29;99530.59;;;29.15;21.33
65280;BME280;51878;55.748;48.742;2023-09-19T11:18:51;99495.59;;;29.04;20.43
65280;BME280;51878;55.748;48.742;2023-09-19T11:29:28;99590.44;;;30.11;21.15
65280;BME280;51878;55.748;48.742;2023-09-19T11:34:42;99632.59;;;29.73;20.84
65280;BME280;51878;55.748;48.742;2023-09-19T11:40:08;99622.25;;;30.01;20.47
65280;BME280;51878;55.748;48.742;2023-09-19T11:50:53;99625.06;;;30.01;20.73
65280;BME280;51878;55.748;48.742;2023-09-19T11:55:56;99641.78;;;31.16;19.61
65280;BME280;51878;55.748;48.742;2023-09-19T12:01:02;99636.75;;;27.96;21.70
65280;BME280;51878;55.748;48.742;2023-09-19T12:06:15;99583.41;;;27.31;22.94
65280;BME280;51878;55.748;48.742;2023-09-19T12:11:18;99586.97;;;27.85;22.28
65280;BME280;51878;55.748;48.742;2023-09-19T12:16:22;99603.97;;;28.50;21.79
65280;BME280;51878;55.748;48.742;2023-09-19T12:21:27;99591.97;;;27.88;22.47
65280;BME280;51878;55.748;48.742;2023-09-19T12:26:37;99618.34;;;28.76;21.64
65280;BME280;51878;55.748;48.742;2023-09-19T12:42:19;99632.94;;;27.58;22.60
65280;BME280;51878;55.748;48.742;2023-09-19T12:47:23;99587.75;;;26.34;23.77
65280;BME280;51878;55.748;48.742;2023-09-19T12:52:34;99628.13;;;26.21;24.70
65280;BME280;51878;55.748;48.742;2023-09-19T12:57:38;99592.84;;;26.66;23.55
65280;BME280;51878;55.748;48.742;2023-09-19T13:08:28;99643.31;;;28.06;22.61
65280;BME280;51878;55.748;48.742;2023-09-19T13:13:44;99622.16;;;28.05;22.82
65280;BME280;51878;55.748;48.742;2023-09-19T13:18:51;99637.47;;;29.02;21.58
65280;BME280;51878;55.748;48.742;2023-09-19T13:23:56;99634.97;;;29.94;20.91
65280;BME280;51878;55.748;48.742;2023-09-19T13:29:18;99605.44;;;30.43;20.13
65280;BME280;51878;55.748;48.742;2023-09-19T13:34:20;99628.00;;;30.83;20.13
65280;BME280;51878;55.748;48.742;2023-09-19T13:39:23;99594.97;;;30.21;20.63
65280;BME280;51878;55.748;48.742;2023-09-19T13:44:28;99617.63;;;30.47;20.44
65280;BME280;51878;55.748;48.742;2023-09-19T13:49:32;99583.66;;;30.40;19.78
65280;BME280;51878;55.748;48.742;2023-09-19T13:54:34;99591.59;;;29.82;20.35
65280;BME280;51878;55.748;48.742;2023-09-19T13:59:36;99591.94;;;29.34;20.87
65280;BME280;51878;55.748;48.742;2023-09-19T14:04:38;99517.00;;;28.62;21.51
65280;BME280;51878;55.748;48.742;2023-09-19T14:09:41;99585.50;;;26.80;23.59
65280;BME280;51878;55.748;48.742;2023-09-19T14:14:43;99572.31;;;25.37;25.27
65280;BME280;51878;55.748;48.742;2023-09-19T14:19:47;99594.84;;;25.05;25.28
65280;BME280;51878;55.748;48.742;2023-09-19T14:24:49;99573.97;;;24.36;26.12
65280;BME280;51878;55.748;48.742;2023-09-19T14:29:51;99531.59;;;24.45;26.21
65280;BME280;51878;55.748;48.742;2023-09-19T14:34:53;99600.38;;;23.33;27.58
65280;BME280;51878;55.748;48.742;2023-09-19T14:39:56;99600.25;;;21.76;29.75
65280;BME280;51878;55.748;48.742;2023-09-19T14:44:58;99619.94;;;20.90;31.18
65280;BME280;51878;55.748;48.742;2023-09-19T14:50:02;99608.69;;;20.17;32.26
65280;BME280;51878;55.748;48.742;2023-09-19T14:55:08;99621.88;;;19.39;33.58
65280;BME280;51878;55.748;48.742;2023-09-19T15:00:16;99620.00;;;18.02;36.04
65280;BME280;51878;55.748;48.742;2023-09-19T15:05:19;99598.50;;;16.82;38.71
65280;BME280;51878;55.748;48.742;2023-09-19T15:10:22;99615.50;;;16.27;39.48
65280;BME280;51878;55.748;48.742;2023-09-19T15:15:24;99611.34;;;15.73;41.39
65280;BME280;51878;55.748;48.742;2023-09-19T15:20:26;99497.53;;;14.55;42.23
65280;BME280;51878;55.748;48.742;2023-09-19T15:25:29;99582.72;;;14.70;43.42
65280;BME280;51878;55.748;48.742;2023-09-19T15:30:31;99636.69;;;14.75;44.98
65280;BME280;51878;55.748;48.742;2023-09-19T15:35:33;99614.34;;;14.18;46.45
65280;BME280;51878;55.748;48.742;2023-09-19T15:40:46;99620.56;;;13.92;47.83
65280;BME280;51878;55.748;48.742;2023-09-19T15:45:49;99597.34;;;13.54;48.25
65280;BME280;51878;55.748;48.742;2023-09-19T15:50:52;99627.06;;;13.49;49.38
65280;BME280;51878;55.748;48.742;2023-09-19T15:55:54;99559.59;;;12.81;50.49
65280;BME280;51878;55.748;48.742;2023-09-19T16:00:56;99575.63;;;12.70;51.02
65280;BME280;51878;55.748;48.742;2023-09-19T16:05:59;99652.59;;;12.92;51.82
65280;BME280;51878;55.748;48.742;2023-09-19T16:11:01;99661.91;;;12.76;52.57
65280;BME280;51878;55.748;48.742;2023-09-19T16:16:04;99626.47;;;12.48;52.57
65280;BME280;51878;55.748;48.742;2023-09-19T16:21:07;99651.41;;;12.51;53.49
65280;BME280;51878;55.748;48.742;2023-09-19T16:26:13;99628.81;;;12.29;54.04
65280;BME280;51878;55.748;48.742;2023-09-19T16:31:16;99668.44;;;12.38;54.54
65280;BME280;51878;55.748;48.742;2023-09-19T16:36:19;99651.72;;;12.20;54.52
65280;BME280;51878;55.748;48.742;2023-09-19T16:41:22;99657.28;;;12.12;55.10
65280;BME280;51878;55.748;48.742;2023-09-19T16:46:25;99672.56;;;12.13;55.40
65280;BME280;51878;55.748;48.742;2023-09-19T16:51:27;99643.16;;;11.87;55.61
65280;BME280;51878;55.748;48.742;2023-09-19T16:56:30;99673.50;;;12.05;56.03
65280;BME280;51878;55.748;48.742;2023-09-19T17:01:35;99608.34;;;11.61;56.45
65280;BME280;51878;55.748;48.742;2023-09-19T17:06:38;99689.38;;;12.02;57.01
65280;BME280;51878;55.748;48.742;2023-09-19T17:11:41;99697.03;;;11.98;57.28
65280;BME280;51878;55.748;48.742;2023-09-19T17:16:43;99666.59;;;11.73;57.48
65280;BME280;51878;55.748;48.742;2023-09-19T17:21:46;99683.63;;;11.82;57.29
65280;BME280;51878;55.748;48.742;2023-09-19T17:26:49;99635.91;;;11.57;57.62
65280;BME280;51878;55.748;48.742;2023-09-19T17:31:51;99657.16;;;11.69;57.73
65280;BME280;51878;55.748;48.742;2023-09-19T17:36:53;99685.31;;;11.83;58.23
65280;BME280;51878;55.748;48.742;2023-09-19T17:41:56;99641.41;;;11.64;58.22
65280;BME280;51878;55.748;48.742;2023-09-19T17:46:58;99634.09;;;11.65;58.01
65280;BME280;51878;55.748;48.742;2023-09-19T17:52:00;99649.44;;;11.72;58.08
65280;BME280;51878;55.748;48.742;2023-09-19T17:57:03;99681.22;;;12.02;58.03
65280;BME280;51878;55.748;48.742;2023-09-19T18:02:05;99685.59;;;12.03;57.71
65280;BME280;51878;55.748;48.742;2023-09-19T18:07:08;99666.22;;;11.91;57.28
65280;BME280;51878;55.748;48.742;2023-09-19T18:12:10;99686.44;;;12.03;57.43
65280;BME280;51878;55.748;48.742;2023-09-19T18:17:13;99699.28;;;12.09;57.49
65280;BME280;51878;55.748;48.742;2023-09-19T18:22:16;99685.41;;;12.04;57.33
65280;BME280;51878;55.748;48.742;2023-09-19T18:27:19;99682.16;;;11.94;57.22
65280;BME280;51878;55.748;48.742;2023-09-19T18:32:22;99660.88;;;11.83;57.48
65280;BME280;51878;55.748;48.742;2023-09-19T18:37:25;99664.81;;;11.80;57.67
65280;BME280;51878;55.748;48.742;2023-09-19T18:42:28;99673.22;;;11.85;57.90
65280;BME280;51878;55.748;48.742;2023-09-19T18:47:31;99704.22;;;12.06;57.73
65280;BME280;51878;55.748;48.742;2023-09-19T18:52:33;99654.31;;;11.77;57.49
65280;BME280;51878;55.748;48.742;2023-09-19T18:57:36;99690.47;;;11.92;57.55
65280;BME280;51878;55.748;48.742;2023-09-19T19:02:39;99658.81;;;11.70;57.40
65280;BME280;51878;55.748;48.742;2023-09-19T19:07:41;99694.59;;;11.73;59.54
65280;BME280;51878;55.748;48.742;2023-09-19T19:12:44;99695.06;;;11.47;59.88
65280;BME280;51878;55.748;48.742;2023-09-19T19:17:46;99689.63;;;11.32;61.30
65280;BME280;51878;55.748;48.742;2023-09-19T19:22:49;99632.63;;;10.80;61.61
65280;BME280;51878;55.748;48.742;2023-09-19T19:27:53;99695.47;;;11.06;61.97
65280;BME280;51878;55.748;48.742;2023-09-19T19:32:56;99640.72;;;10.65;62.27
65280;BME280;51878;55.748;48.742;2023-09-19T19:37:58;99692.19;;;10.73;62.66
65280;BME280;51878;55.748;48.742;2023-09-19T19:43:04;99731.00;;;10.96;62.68
65280;BME280;51878;55.748;48.742;2023-09-19T19:48:06;99728.28;;;10.96;62.18
65280;BME280;51878;55.748;48.742;2023-09-19T19:53:09;99733.88;;;10.95;63.14
65280;BME280;51878;55.748;48.742;2023-09-19T19:58:12;99638.53;;;10.45;61.89
65280;BME280;51878;55.748;48.742;2023-09-19T20:03:16;99731.78;;;11.05;61.54
65280;BME280;51878;55.748;48.742;2023-09-19T20:08:19;99711.72;;;10.91;61.20
65280;BME280;51878;55.748;48.742;2023-09-19T20:13:23;99710.41;;;10.87;61.48
65280;BME280;51878;55.748;48.742;2023-09-19T20:18:29;99718.53;;;10.87;61.48
65280;BME280;51878;55.748;48.742;2023-09-19T20:23:31;99748.06;;;11.05;60.98
65280;BME280;51878;55.748;48.742;2023-09-19T20:28:34;99735.50;;;11.04;60.83
65280;BME280;51878;55.748;48.742;2023-09-19T20:33:37;99710.41;;;11.02;59.88
65280;BME280;51878;55.748;48.742;2023-09-19T20:38:39;99724.47;;;11.06;59.91
65280;BME280;51878;55.748;48.742;2023-09-19T20:43:42;99658.75;;;10.81;59.66
65280;BME280;51878;55.748;48.742;2023-09-19T20:48:48;99689.75;;;11.01;59.56
65280;BME280;51878;55.748;48.742;2023-09-19T20:53:52;99744.19;;;11.23;59.53
65280;BME280;51878;55.748;48.742;2023-09-19T20:58:55;99736.50;;;11.26;59.15
65280;BME280;51878;55.748;48.742;2023-09-19T21:03:58;99735.84;;;11.24;58.87
65280;BME280;51878;55.748;48.742;2023-09-19T21:09:00;99746.13;;;11.14;59.41
65280;BME280;51878;55.748;48.742;2023-09-19T21:14:02;99756.53;;;11.02;60.51
65280;BME280;51878;55.748;48.742;2023-09-19T21:19:06;99731.78;;;10.82;61.14
65280;BME280;51878;55.748;48.742;2023-09-19T21:24:09;99756.84;;;10.84;61.49
65280;BME280;51878;55.748;48.742;2023-09-19T21:29:13;99744.44;;;10.67;62.05
65280;BME280;51878;55.748;48.742;2023-09-19T21:34:15;99752.44;;;10.60;62.48
65280;BME280;51878;55.748;48.742;2023-09-19T21:39:18;99713.13;;;10.33;62.83
65280;BME280;51878;55.748;48.742;2023-09-19T21:44:20;99761.84;;;10.49;63.50
65280;BME280;51878;55.748;48.742;2023-09-19T21:49:22;99718.63;;;10.17;63.59
65280;BME280;51878;55.748;48.742;2023-09-19T21:54:28;99735.88;;;10.24;63.83
65280;BME280;51878;55.748;48.742;2023-09-19T21:59:33;99703.13;;;10.02;63.64
65280;BME280;51878;55.748;48.742;2023-09-19T22:04:35;99743.63;;;10.27;64.67
65280;BME280;51878;55.748;48.742;2023-09-19T22:09:38;99678.50;;;9.81;66.12
65280;BME280;51878;55.748;48.742;2023-09-19T22:14:40;99691.00;;;9.90;67.18
65280;BME280;51878;55.748;48.742;2023-09-19T22:19:42;99749.75;;;10.29;67.58
65280;BME280;51878;55.748;48.742;2023-09-19T22:24:45;99749.41;;;10.32;67.97
65280;BME280;51878;55.748;48.742;2023-09-19T22:29:50;99720.16;;;10.11;68.55
65280;BME280;51878;55.748;48.742;2023-09-19T22:34:52;99729.66;;;10.07;68.49
65280;BME280;51878;55.748;48.742;2023-09-19T22:39:55;99740.34;;;10.08;68.33
65280;BME280;51878;55.748;48.742;2023-09-19T22:44:57;99734.13;;;10.00;69.08
65280;BME280;51878;55.748;48.742;2023-09-19T22:49:59;99773.97;;;10.22;68.99
65280;BME280;51878;55.748;48.742;2023-09-19T22:55:04;99763.16;;;10.14;69.41
65280;BME280;51878;55.748;48.742;2023-09-19T23:00:10;99728.41;;;9.86;70.13
65280;BME280;51878;55.748;48.742;2023-09-19T23:05:16;99770.97;;;10.09;71.02
65280;BME280;51878;55.748;48.742;2023-09-19T23:10:20;99774.44;;;9.95;72.17
65280;BME280;51878;55.748;48.742;2023-09-19T23:15:22;99779.50;;;9.89;72.45
65280;BME280;51878;55.748;48.742;2023-09-19T23:20:28;99777.00;;;9.80;73.85
65280;BME280;51878;55.748;48.742;2023-09-19T23:25:38;99742.91;;;9.46;75.15
65280;BME280;51878;55.748;48.742;2023-09-19T23:30:48;99795.50;;;9.68;75.68
65280;BME280;51878;55.748;48.742;2023-09-19T23:35:55;99765.41;;;9.46;76.58
65280;BME280;51878;55.748;48.742;2023-09-19T23:40:57;99773.19;;;9.41;76.96
65280;BME280;51878;55.748;48.742;2023-09-19T23:46:00;99767.59;;;9.35;77.34
65280;BME280;51878;55.748;48.742;2023-09-19T23:51:07;99724.69;;;9.07;77.71
65280;BME280;51878;55.748;48.742;2023-09-19T23:56:10;99739.56;;;9.03;78.87
